Archival Weather

Tokyo Intl

Tokyo, Japan (RJTT)

Report from: Sunday, March 19, 2023 11:30 AM JST
Current time: Monday, June 17, 2024 8:27 PM JST

Current weather – Weather history – Daily summaries
Weather forecast

Temperature11.0°C (51.8°F)
Dew point1.0°C (33.8°F)
Winds 8 kts (4.1 m/s, 9.2 mph) East (100°)
Visibility6.2 mi. (10 km)
Clouds Few clouds 3,000 ft. (914 m)
Altimeter30.09 in.Hg (1019 mB)
Relative humidity50 %
Density altitude-571 ft. (-174 m)
Remarks No significant changes expected in the next two hours
Flight conditions Visual Meteorological Conditions
Raw dataRJTT 190230Z 10008KT 9999 FEW030 11/01 Q1019 NOSIG RMK 1CU030 A3010
An error has occurred. This application may no longer respond until reloaded. Reload 🗙